Rabat, Morocco
Current Conditions -  °F | °C
As of 9:00 PM on Wednesday 17 Dec 2014 (Local Time) from GMME Reporting Station
Broken Clouds Broken Clouds  
Wind Chill: 54°   Ceiling: 20000
Heat Index: 54°   Visibility: 4mi
Dew Point: 50°   Wind: 2mph
Humidity: 88%   Direction: 100°E
Pressure: 30.3"   Gusts: NA
Location:  34.02°N, 6.84°W
Report Text: GMME 172000Z 10002KT 6000 FEW016 BKN200 12/10 Q1026 NOSIG
Loading
Personal Weather Stations






























Interactive Weather Map New forecast layout! Learn more

10-Day Weather Forecast

Advertisements
Track Severe Weather on mobile